sensor_id;sensor_type;location;lat;lon;timestamp;temperature;humidity
74101;DHT22;62462;52.530;21.682;2022-11-22T00:00:13;3.40;79.60
74101;DHT22;62462;52.530;21.682;2022-11-22T00:02:39;3.40;79.60
74101;DHT22;62462;52.530;21.682;2022-11-22T00:05:05;3.40;79.60
74101;DHT22;62462;52.530;21.682;2022-11-22T00:07:31;3.40;79.50
74101;DHT22;62462;52.530;21.682;2022-11-22T00:09:56;3.40;79.40
74101;DHT22;62462;52.530;21.682;2022-11-22T00:12:22;3.50;79.40
74101;DHT22;62462;52.530;21.682;2022-11-22T00:14:48;3.50;79.20
74101;DHT22;62462;52.530;21.682;2022-11-22T00:17:14;3.50;79.10
74101;DHT22;62462;52.530;21.682;2022-11-22T00:19:39;3.50;79.10
74101;DHT22;62462;52.530;21.682;2022-11-22T00:22:06;3.50;79.20
74101;DHT22;62462;52.530;21.682;2022-11-22T00:24:32;3.50;79.20
74101;DHT22;62462;52.530;21.682;2022-11-22T00:26:58;3.40;79.40
74101;DHT22;62462;52.530;21.682;2022-11-22T00:29:23;3.40;79.60
74101;DHT22;62462;52.530;21.682;2022-11-22T00:31:49;3.40;79.70
74101;DHT22;62462;52.530;21.682;2022-11-22T00:34:15;3.30;79.70
74101;DHT22;62462;52.530;21.682;2022-11-22T00:36:40;3.30;79.80
74101;DHT22;62462;52.530;21.682;2022-11-22T00:39:06;3.30;79.70
74101;DHT22;62462;52.530;21.682;2022-11-22T00:41:32;3.40;79.80
74101;DHT22;62462;52.530;21.682;2022-11-22T00:43:57;3.30;79.60
74101;DHT22;62462;52.530;21.682;2022-11-22T00:46:23;3.30;80.70
74101;DHT22;62462;52.530;21.682;2022-11-22T00:48:49;3.30;79.80
74101;DHT22;62462;52.530;21.682;2022-11-22T00:51:15;3.30;79.80
74101;DHT22;62462;52.530;21.682;2022-11-22T00:53:40;3.30;79.60
74101;DHT22;62462;52.530;21.682;2022-11-22T00:56:06;3.30;79.60
74101;DHT22;62462;52.530;21.682;2022-11-22T00:58:32;3.40;79.50
74101;DHT22;62462;52.530;21.682;2022-11-22T01:00:58;3.40;79.30
74101;DHT22;62462;52.530;21.682;2022-11-22T01:03:23;3.40;79.20
74101;DHT22;62462;52.530;21.682;2022-11-22T01:05:49;3.40;79.20
74101;DHT22;62462;52.530;21.682;2022-11-22T01:08:15;3.40;79.30
74101;DHT22;62462;52.530;21.682;2022-11-22T01:10:41;3.40;79.40
74101;DHT22;62462;52.530;21.682;2022-11-22T01:13:11;3.40;79.30
74101;DHT22;62462;52.530;21.682;2022-11-22T01:15:37;3.40;79.30
74101;DHT22;62462;52.530;21.682;2022-11-22T01:18:03;3.40;79.30
74101;DHT22;62462;52.530;21.682;2022-11-22T01:20:29;3.40;79.30
74101;DHT22;62462;52.530;21.682;2022-11-22T01:22:56;3.40;79.30
74101;DHT22;62462;52.530;21.682;2022-11-22T01:25:22;3.40;79.20
74101;DHT22;62462;52.530;21.682;2022-11-22T01:27:48;3.50;79.20
74101;DHT22;62462;52.530;21.682;2022-11-22T01:30:16;3.40;79.10
74101;DHT22;62462;52.530;21.682;2022-11-22T01:32:42;3.40;79.10
74101;DHT22;62462;52.530;21.682;2022-11-22T01:35:08;3.40;79.20
74101;DHT22;62462;52.530;21.682;2022-11-22T01:37:35;3.50;79.10
74101;DHT22;62462;52.530;21.682;2022-11-22T01:40:01;3.50;79.00
74101;DHT22;62462;52.530;21.682;2022-11-22T01:42:45;3.50;78.80
74101;DHT22;62462;52.530;21.682;2022-11-22T01:48:16;3.50;78.70
74101;DHT22;62462;52.530;21.682;2022-11-22T01:50:44;3.50;78.90
74101;DHT22;62462;52.530;21.682;2022-11-22T01:53:24;3.40;79.00
74101;DHT22;62462;52.530;21.682;2022-11-22T01:55:53;3.40;79.10
74101;DHT22;62462;52.530;21.682;2022-11-22T01:58:20;3.40;79.10
74101;DHT22;62462;52.530;21.682;2022-11-22T02:00:48;3.40;79.10
74101;DHT22;62462;52.530;21.682;2022-11-22T02:03:16;3.40;79.00
74101;DHT22;62462;52.530;21.682;2022-11-22T02:05:43;3.40;79.00
74101;DHT22;62462;52.530;21.682;2022-11-22T02:08:24;3.40;79.10
74101;DHT22;62462;52.530;21.682;2022-11-22T02:10:54;3.40;79.00
74101;DHT22;62462;52.530;21.682;2022-11-22T02:13:21;3.50;78.90
74101;DHT22;62462;52.530;21.682;2022-11-22T02:15:50;3.50;78.90
74101;DHT22;62462;52.530;21.682;2022-11-22T02:18:16;3.50;78.90
74101;DHT22;62462;52.530;21.682;2022-11-22T02:20:42;3.50;78.90
74101;DHT22;62462;52.530;21.682;2022-11-22T02:25:50;3.40;80.10
74101;DHT22;62462;52.530;21.682;2022-11-22T02:28:16;3.40;79.20
74101;DHT22;62462;52.530;21.682;2022-11-22T02:30:42;3.40;79.10
74101;DHT22;62462;52.530;21.682;2022-11-22T02:33:07;3.40;80.10
74101;DHT22;62462;52.530;21.682;2022-11-22T02:35:34;3.40;79.20
74101;DHT22;62462;52.530;21.682;2022-11-22T02:38:07;3.40;79.30
74101;DHT22;62462;52.530;21.682;2022-11-22T02:40:39;3.40;79.30
74101;DHT22;62462;52.530;21.682;2022-11-22T02:43:16;3.40;79.40
74101;DHT22;62462;52.530;21.682;2022-11-22T02:45:43;3.40;79.40
74101;DHT22;62462;52.530;21.682;2022-11-22T02:48:13;3.40;79.50
74101;DHT22;62462;52.530;21.682;2022-11-22T02:50:39;3.40;79.40
74101;DHT22;62462;52.530;21.682;2022-11-22T02:53:07;3.40;79.50
74101;DHT22;62462;52.530;21.682;2022-11-22T02:55:33;3.30;79.40
74101;DHT22;62462;52.530;21.682;2022-11-22T02:57:59;3.40;79.50
74101;DHT22;62462;52.530;21.682;2022-11-22T03:00:25;3.40;79.40
74101;DHT22;62462;52.530;21.682;2022-11-22T03:02:50;3.40;80.20
74101;DHT22;62462;52.530;21.682;2022-11-22T03:05:16;3.40;79.30
74101;DHT22;62462;52.530;21.682;2022-11-22T03:07:42;3.40;79.20
74101;DHT22;62462;52.530;21.682;2022-11-22T03:10:08;3.40;79.20
74101;DHT22;62462;52.530;21.682;2022-11-22T03:12:34;3.40;79.10
74101;DHT22;62462;52.530;21.682;2022-11-22T03:14:59;3.40;79.10
74101;DHT22;62462;52.530;21.682;2022-11-22T03:17:25;3.40;79.10
74101;DHT22;62462;52.530;21.682;2022-11-22T03:19:51;3.40;79.10
74101;DHT22;62462;52.530;21.682;2022-11-22T03:22:16;3.40;79.10
74101;DHT22;62462;52.530;21.682;2022-11-22T03:24:42;3.40;79.10
74101;DHT22;62462;52.530;21.682;2022-11-22T03:27:08;3.40;79.00
74101;DHT22;62462;52.530;21.682;2022-11-22T03:29:33;3.40;79.00
74101;DHT22;62462;52.530;21.682;2022-11-22T03:31:59;3.50;79.00
74101;DHT22;62462;52.530;21.682;2022-11-22T03:34:25;3.50;78.80
74101;DHT22;62462;52.530;21.682;2022-11-22T03:36:50;3.40;78.80
74101;DHT22;62462;52.530;21.682;2022-11-22T03:39:16;3.40;78.80
74101;DHT22;62462;52.530;21.682;2022-11-22T03:41:42;3.40;78.70
74101;DHT22;62462;52.530;21.682;2022-11-22T03:44:07;3.50;79.70
74101;DHT22;62462;52.530;21.682;2022-11-22T03:46:33;3.50;78.80
74101;DHT22;62462;52.530;21.682;2022-11-22T03:48:59;3.50;78.80
74101;DHT22;62462;52.530;21.682;2022-11-22T03:51:26;3.40;78.90
74101;DHT22;62462;52.530;21.682;2022-11-22T03:53:51;3.40;78.90
74101;DHT22;62462;52.530;21.682;2022-11-22T03:56:17;3.40;78.90
74101;DHT22;62462;52.530;21.682;2022-11-22T03:58:42;3.40;78.90
74101;DHT22;62462;52.530;21.682;2022-11-22T04:01:08;3.40;78.80
74101;DHT22;62462;52.530;21.682;2022-11-22T04:03:34;3.50;78.80
74101;DHT22;62462;52.530;21.682;2022-11-22T04:05:59;3.50;78.60
74101;DHT22;62462;52.530;21.682;2022-11-22T04:08:25;3.50;78.50
74101;DHT22;62462;52.530;21.682;2022-11-22T04:10:51;3.50;78.40
74101;DHT22;62462;52.530;21.682;2022-11-22T04:13:17;3.50;78.40
74101;DHT22;62462;52.530;21.682;2022-11-22T04:15:43;3.50;78.40
74101;DHT22;62462;52.530;21.682;2022-11-22T04:18:10;3.50;78.30
74101;DHT22;62462;52.530;21.682;2022-11-22T04:20:37;3.50;78.50
74101;DHT22;62462;52.530;21.682;2022-11-22T04:23:23;3.50;78.50
74101;DHT22;62462;52.530;21.682;2022-11-22T04:25:51;3.40;78.60
74101;DHT22;62462;52.530;21.682;2022-11-22T04:28:23;3.40;78.80
74101;DHT22;62462;52.530;21.682;2022-11-22T04:30:49;3.40;79.00
74101;DHT22;62462;52.530;21.682;2022-11-22T04:33:34;3.40;78.90
74101;DHT22;62462;52.530;21.682;2022-11-22T04:35:59;3.40;78.90
74101;DHT22;62462;52.530;21.682;2022-11-22T04:38:25;3.40;79.00
74101;DHT22;62462;52.530;21.682;2022-11-22T04:40:51;3.40;78.80
74101;DHT22;62462;52.530;21.682;2022-11-22T04:43:22;3.40;78.80
74101;DHT22;62462;52.530;21.682;2022-11-22T04:46:07;3.40;78.70
74101;DHT22;62462;52.530;21.682;2022-11-22T04:48:33;3.40;78.60
74101;DHT22;62462;52.530;21.682;2022-11-22T04:50:59;3.50;78.50
74101;DHT22;62462;52.530;21.682;2022-11-22T04:53:43;3.50;78.50
74101;DHT22;62462;52.530;21.682;2022-11-22T04:56:10;3.50;78.30
74101;DHT22;62462;52.530;21.682;2022-11-22T04:58:35;3.60;78.20
74101;DHT22;62462;52.530;21.682;2022-11-22T05:01:01;3.60;78.20
74101;DHT22;62462;52.530;21.682;2022-11-22T05:03:27;3.50;78.40
74101;DHT22;62462;52.530;21.682;2022-11-22T05:05:52;3.50;78.40
74101;DHT22;62462;52.530;21.682;2022-11-22T05:08:18;3.50;78.50
74101;DHT22;62462;52.530;21.682;2022-11-22T05:10:47;3.50;78.50
74101;DHT22;62462;52.530;21.682;2022-11-22T05:13:40;3.50;78.60
74101;DHT22;62462;52.530;21.682;2022-11-22T05:16:09;3.50;78.60
74101;DHT22;62462;52.530;21.682;2022-11-22T05:18:35;3.50;78.50
74101;DHT22;62462;52.530;21.682;2022-11-22T05:21:10;3.50;78.50
74101;DHT22;62462;52.530;21.682;2022-11-22T05:23:36;3.50;78.40
74101;DHT22;62462;52.530;21.682;2022-11-22T05:26:34;3.60;78.50
74101;DHT22;62462;52.530;21.682;2022-11-22T05:29:05;3.50;78.40
74101;DHT22;62462;52.530;21.682;2022-11-22T05:31:32;3.50;78.40
74101;DHT22;62462;52.530;21.682;2022-11-22T05:33:58;3.50;78.50
74101;DHT22;62462;52.530;21.682;2022-11-22T05:36:24;3.50;78.50
74101;DHT22;62462;52.530;21.682;2022-11-22T05:38:51;3.50;78.50
74101;DHT22;62462;52.530;21.682;2022-11-22T05:41:17;3.50;78.40
74101;DHT22;62462;52.530;21.682;2022-11-22T05:43:43;3.60;78.50
74101;DHT22;62462;52.530;21.682;2022-11-22T05:46:14;3.50;78.40
74101;DHT22;62462;52.530;21.682;2022-11-22T05:48:42;3.50;78.50
74101;DHT22;62462;52.530;21.682;2022-11-22T05:51:10;3.50;78.70
74101;DHT22;62462;52.530;21.682;2022-11-22T05:53:37;3.50;79.60
74101;DHT22;62462;52.530;21.682;2022-11-22T05:56:07;3.50;78.50
74101;DHT22;62462;52.530;21.682;2022-11-22T05:58:34;3.50;78.50
74101;DHT22;62462;52.530;21.682;2022-11-22T06:01:05;3.50;78.50
74101;DHT22;62462;52.530;21.682;2022-11-22T06:03:31;3.50;78.50
74101;DHT22;62462;52.530;21.682;2022-11-22T06:05:56;3.50;78.30
74101;DHT22;62462;52.530;21.682;2022-11-22T06:08:22;3.50;78.60
74101;DHT22;62462;52.530;21.682;2022-11-22T06:10:48;3.50;78.50
74101;DHT22;62462;52.530;21.682;2022-11-22T06:13:13;3.50;78.50
74101;DHT22;62462;52.530;21.682;2022-11-22T06:15:39;3.50;78.30
74101;DHT22;62462;52.530;21.682;2022-11-22T06:18:05;3.50;78.30
74101;DHT22;62462;52.530;21.682;2022-11-22T06:20:31;3.50;78.40
74101;DHT22;62462;52.530;21.682;2022-11-22T06:22:59;3.50;78.50
74101;DHT22;62462;52.530;21.682;2022-11-22T06:25:25;3.50;78.50
74101;DHT22;62462;52.530;21.682;2022-11-22T06:27:51;3.50;78.70
74101;DHT22;62462;52.530;21.682;2022-11-22T06:30:17;3.50;78.60
74101;DHT22;62462;52.530;21.682;2022-11-22T06:32:42;3.50;78.60
74101;DHT22;62462;52.530;21.682;2022-11-22T06:35:08;3.50;78.50
74101;DHT22;62462;52.530;21.682;2022-11-22T06:37:34;3.50;78.50
74101;DHT22;62462;52.530;21.682;2022-11-22T06:40:00;3.50;78.70
74101;DHT22;62462;52.530;21.682;2022-11-22T06:42:25;3.50;78.70
74101;DHT22;62462;52.530;21.682;2022-11-22T06:44:51;3.50;78.70
74101;DHT22;62462;52.530;21.682;2022-11-22T06:47:17;3.50;78.60
74101;DHT22;62462;52.530;21.682;2022-11-22T06:49:43;3.60;78.60
74101;DHT22;62462;52.530;21.682;2022-11-22T06:52:10;3.60;78.50
74101;DHT22;62462;52.530;21.682;2022-11-22T06:54:36;3.60;78.40
74101;DHT22;62462;52.530;21.682;2022-11-22T06:57:01;3.60;78.40
74101;DHT22;62462;52.530;21.682;2022-11-22T06:59:27;3.60;78.40
74101;DHT22;62462;52.530;21.682;2022-11-22T07:01:53;3.60;78.40
74101;DHT22;62462;52.530;21.682;2022-11-22T07:04:18;3.60;78.40
74101;DHT22;62462;52.530;21.682;2022-11-22T07:06:44;3.60;78.40
74101;DHT22;62462;52.530;21.682;2022-11-22T07:09:11;3.60;78.50
74101;DHT22;62462;52.530;21.682;2022-11-22T07:11:38;3.50;78.50
74101;DHT22;62462;52.530;21.682;2022-11-22T07:14:04;3.60;78.70
74101;DHT22;62462;52.530;21.682;2022-11-22T07:16:30;3.60;78.60
74101;DHT22;62462;52.530;21.682;2022-11-22T07:18:58;3.60;78.50
74101;DHT22;62462;52.530;21.682;2022-11-22T07:21:24;3.70;78.40
74101;DHT22;62462;52.530;21.682;2022-11-22T07:23:53;3.70;78.30
74101;DHT22;62462;52.530;21.682;2022-11-22T07:26:21;3.70;78.30
74101;DHT22;62462;52.530;21.682;2022-11-22T07:28:47;3.70;78.30
74101;DHT22;62462;52.530;21.682;2022-11-22T07:31:15;3.70;78.30
74101;DHT22;62462;52.530;21.682;2022-11-22T07:33:41;3.70;78.30
74101;DHT22;62462;52.530;21.682;2022-11-22T07:38:38;3.70;78.30
74101;DHT22;62462;52.530;21.682;2022-11-22T07:41:05;3.70;78.30
74101;DHT22;62462;52.530;21.682;2022-11-22T07:43:31;3.60;78.30
74101;DHT22;62462;52.530;21.682;2022-11-22T07:46:04;3.60;78.40
74101;DHT22;62462;52.530;21.682;2022-11-22T07:48:30;3.60;78.70
74101;DHT22;62462;52.530;21.682;2022-11-22T07:51:01;3.60;78.80
74101;DHT22;62462;52.530;21.682;2022-11-22T07:53:27;3.60;78.70
74101;DHT22;62462;52.530;21.682;2022-11-22T07:55:53;3.60;78.70
74101;DHT22;62462;52.530;21.682;2022-11-22T07:58:18;3.70;78.70
74101;DHT22;62462;52.530;21.682;2022-11-22T08:00:44;3.70;78.60
74101;DHT22;62462;52.530;21.682;2022-11-22T08:03:11;3.80;78.30
74101;DHT22;62462;52.530;21.682;2022-11-22T08:05:36;3.80;78.40
74101;DHT22;62462;52.530;21.682;2022-11-22T08:08:02;3.90;78.70
74101;DHT22;62462;52.530;21.682;2022-11-22T08:10:28;3.90;78.10
74101;DHT22;62462;52.530;21.682;2022-11-22T08:12:57;3.90;78.00
74101;DHT22;62462;52.530;21.682;2022-11-22T08:15:23;3.90;77.90
74101;DHT22;62462;52.530;21.682;2022-11-22T08:17:49;3.80;77.90
74101;DHT22;62462;52.530;21.682;2022-11-22T08:20:14;3.80;78.10
74101;DHT22;62462;52.530;21.682;2022-11-22T08:22:41;3.70;78.30
74101;DHT22;62462;52.530;21.682;2022-11-22T08:25:07;3.70;78.40
74101;DHT22;62462;52.530;21.682;2022-11-22T08:27:38;3.70;78.50
74101;DHT22;62462;52.530;21.682;2022-11-22T08:30:06;3.70;78.70
74101;DHT22;62462;52.530;21.682;2022-11-22T08:32:33;3.80;78.60
74101;DHT22;62462;52.530;21.682;2022-11-22T08:34:59;3.80;78.60
74101;DHT22;62462;52.530;21.682;2022-11-22T08:37:24;3.90;78.50
74101;DHT22;62462;52.530;21.682;2022-11-22T08:39:50;3.90;78.40
74101;DHT22;62462;52.530;21.682;2022-11-22T08:42:16;4.00;78.30
74101;DHT22;62462;52.530;21.682;2022-11-22T08:44:41;4.00;78.10
74101;DHT22;62462;52.530;21.682;2022-11-22T08:47:07;4.00;77.90
74101;DHT22;62462;52.530;21.682;2022-11-22T08:49:33;4.00;78.00
74101;DHT22;62462;52.530;21.682;2022-11-22T08:51:58;4.00;78.00
74101;DHT22;62462;52.530;21.682;2022-11-22T08:54:24;4.00;78.00
74101;DHT22;62462;52.530;21.682;2022-11-22T08:56:50;4.00;77.80
74101;DHT22;62462;52.530;21.682;2022-11-22T08:59:15;4.00;77.90
74101;DHT22;62462;52.530;21.682;2022-11-22T09:01:41;4.00;78.00
74101;DHT22;62462;52.530;21.682;2022-11-22T09:04:07;4.00;77.90
74101;DHT22;62462;52.530;21.682;2022-11-22T09:06:32;4.00;77.80
74101;DHT22;62462;52.530;21.682;2022-11-22T09:08:59;4.10;77.70
74101;DHT22;62462;52.530;21.682;2022-11-22T09:11:25;4.10;77.70
74101;DHT22;62462;52.530;21.682;2022-11-22T09:13:51;4.10;77.80
74101;DHT22;62462;52.530;21.682;2022-11-22T09:16:18;4.10;77.60
74101;DHT22;62462;52.530;21.682;2022-11-22T09:18:45;4.20;77.60
74101;DHT22;62462;52.530;21.682;2022-11-22T09:21:14;4.20;77.60
74101;DHT22;62462;52.530;21.682;2022-11-22T09:23:41;4.30;77.40
74101;DHT22;62462;52.530;21.682;2022-11-22T09:26:09;4.20;77.10
74101;DHT22;62462;52.530;21.682;2022-11-22T09:28:36;4.20;77.10
74101;DHT22;62462;52.530;21.682;2022-11-22T09:31:10;4.20;77.10
74101;DHT22;62462;52.530;21.682;2022-11-22T09:33:36;4.20;77.10
74101;DHT22;62462;52.530;21.682;2022-11-22T09:36:08;4.20;77.10
74101;DHT22;62462;52.530;21.682;2022-11-22T09:38:35;4.20;77.10
74101;DHT22;62462;52.530;21.682;2022-11-22T09:51:36;4.20;77.60
74101;DHT22;62462;52.530;21.682;2022-11-22T09:54:07;4.20;77.30
74101;DHT22;62462;52.530;21.682;2022-11-22T09:56:35;4.30;77.40
74101;DHT22;62462;52.530;21.682;2022-11-22T09:59:20;4.30;77.30
74101;DHT22;62462;52.530;21.682;2022-11-22T10:02:24;4.40;77.40
74101;DHT22;62462;52.530;21.682;2022-11-22T10:04:43;4.50;77.00
74101;DHT22;62462;52.530;21.682;2022-11-22T10:10:16;4.40;76.80
74101;DHT22;62462;52.530;21.682;2022-11-22T10:12:46;4.40;76.90
74101;DHT22;62462;52.530;21.682;2022-11-22T10:18:17;4.40;76.90
74101;DHT22;62462;52.530;21.682;2022-11-22T10:20:45;4.40;77.00
74101;DHT22;62462;52.530;21.682;2022-11-22T10:23:21;4.50;77.00
74101;DHT22;62462;52.530;21.682;2022-11-22T10:25:56;4.50;76.80
74101;DHT22;62462;52.530;21.682;2022-11-22T10:28:35;4.60;76.60
74101;DHT22;62462;52.530;21.682;2022-11-22T10:31:16;4.60;76.70
74101;DHT22;62462;52.530;21.682;2022-11-22T10:36:49;4.60;76.50
74101;DHT22;62462;52.530;21.682;2022-11-22T10:39:19;4.70;76.60
74101;DHT22;62462;52.530;21.682;2022-11-22T10:47:32;4.80;76.20
74101;DHT22;62462;52.530;21.682;2022-11-22T10:50:18;4.90;76.10
74101;DHT22;62462;52.530;21.682;2022-11-22T10:55:47;4.90;75.80
74101;DHT22;62462;52.530;21.682;2022-11-22T10:58:20;4.90;75.80
74101;DHT22;62462;52.530;21.682;2022-11-22T11:00:57;4.90;75.60
74101;DHT22;62462;52.530;21.682;2022-11-22T11:03:34;4.80;75.80
74101;DHT22;62462;52.530;21.682;2022-11-22T11:08:41;4.90;75.90
74101;DHT22;62462;52.530;21.682;2022-11-22T11:11:07;4.90;76.10
74101;DHT22;62462;52.530;21.682;2022-11-22T11:13:44;4.80;76.00
74101;DHT22;62462;52.530;21.682;2022-11-22T11:16:17;4.90;76.10
74101;DHT22;62462;52.530;21.682;2022-11-22T11:21:24;4.90;75.90
74101;DHT22;62462;52.530;21.682;2022-11-22T11:23:51;4.90;75.90
74101;DHT22;62462;52.530;21.682;2022-11-22T11:26:21;4.90;76.00
74101;DHT22;62462;52.530;21.682;2022-11-22T11:28:48;4.90;76.10
74101;DHT22;62462;52.530;21.682;2022-11-22T11:31:14;4.90;75.80
74101;DHT22;62462;52.530;21.682;2022-11-22T11:33:43;4.80;75.70
74101;DHT22;62462;52.530;21.682;2022-11-22T11:36:20;4.80;75.70
74101;DHT22;62462;52.530;21.682;2022-11-22T11:38:53;4.70;75.90
74101;DHT22;62462;52.530;21.682;2022-11-22T11:41:28;4.70;76.20
74101;DHT22;62462;52.530;21.682;2022-11-22T11:43:56;4.80;76.20
74101;DHT22;62462;52.530;21.682;2022-11-22T11:46:27;4.80;76.10
74101;DHT22;62462;52.530;21.682;2022-11-22T11:48:55;4.80;75.70
74101;DHT22;62462;52.530;21.682;2022-11-22T11:51:25;4.80;75.80
74101;DHT22;62462;52.530;21.682;2022-11-22T11:58:58;4.80;75.90
74101;DHT22;62462;52.530;21.682;2022-11-22T12:01:27;4.80;76.10
74101;DHT22;62462;52.530;21.682;2022-11-22T12:03:59;4.90;76.10
74101;DHT22;62462;52.530;21.682;2022-11-22T12:06:27;4.90;76.10
74101;DHT22;62462;52.530;21.682;2022-11-22T12:08:54;4.90;76.00
74101;DHT22;62462;52.530;21.682;2022-11-22T12:11:37;4.90;76.00
74101;DHT22;62462;52.530;21.682;2022-11-22T12:14:09;4.90;75.90
74101;DHT22;62462;52.530;21.682;2022-11-22T12:16:47;4.90;75.90
74101;DHT22;62462;52.530;21.682;2022-11-22T12:19:18;4.90;75.80
74101;DHT22;62462;52.530;21.682;2022-11-22T12:22:14;4.90;75.80
74101;DHT22;62462;52.530;21.682;2022-11-22T12:24:42;4.90;75.90
74101;DHT22;62462;52.530;21.682;2022-11-22T12:27:10;4.90;75.70
74101;DHT22;62462;52.530;21.682;2022-11-22T12:29:39;4.90;75.70
74101;DHT22;62462;52.530;21.682;2022-11-22T12:37:20;4.90;76.00
74101;DHT22;62462;52.530;21.682;2022-11-22T12:39:48;4.90;75.90
74101;DHT22;62462;52.530;21.682;2022-11-22T12:42:31;4.80;75.80
74101;DHT22;62462;52.530;21.682;2022-11-22T12:47:49;4.80;76.00
74101;DHT22;62462;52.530;21.682;2022-11-22T12:53:10;4.80;76.00
74101;DHT22;62462;52.530;21.682;2022-11-22T13:01:29;4.60;76.30
74101;DHT22;62462;52.530;21.682;2022-11-22T13:09:18;4.60;76.40
74101;DHT22;62462;52.530;21.682;2022-11-22T13:12:10;4.60;76.50
74101;DHT22;62462;52.530;21.682;2022-11-22T13:14:52;4.60;77.40
74101;DHT22;62462;52.530;21.682;2022-11-22T13:17:21;4.70;77.40
74101;DHT22;62462;52.530;21.682;2022-11-22T13:27:41;4.70;76.50
74101;DHT22;62462;52.530;21.682;2022-11-22T13:30:22;4.70;76.40
74101;DHT22;62462;52.530;21.682;2022-11-22T13:32:53;4.70;76.40
74101;DHT22;62462;52.530;21.682;2022-11-22T13:38:10;4.70;76.60
74101;DHT22;62462;52.530;21.682;2022-11-22T13:40:45;4.70;76.40
74101;DHT22;62462;52.530;21.682;2022-11-22T13:51:14;4.60;76.70
74101;DHT22;62462;52.530;21.682;2022-11-22T13:53:44;4.50;76.80
74101;DHT22;62462;52.530;21.682;2022-11-22T14:04:31;4.60;76.70
74101;DHT22;62462;52.530;21.682;2022-11-22T14:22:55;4.50;77.00
74101;DHT22;62462;52.530;21.682;2022-11-22T14:28:27;4.50;77.00
74101;DHT22;62462;52.530;21.682;2022-11-22T14:30:59;4.50;77.00
74101;DHT22;62462;52.530;21.682;2022-11-22T14:33:26;4.50;77.00
74101;DHT22;62462;52.530;21.682;2022-11-22T14:38:36;4.50;76.80
74101;DHT22;62462;52.530;21.682;2022-11-22T14:46:24;4.50;76.90
74101;DHT22;62462;52.530;21.682;2022-11-22T14:49:14;4.50;76.80
74101;DHT22;62462;52.530;21.682;2022-11-22T14:51:42;4.40;77.00
74101;DHT22;62462;52.530;21.682;2022-11-22T14:54:20;4.40;77.10
74101;DHT22;62462;52.530;21.682;2022-11-22T14:56:46;4.40;77.20
74101;DHT22;62462;52.530;21.682;2022-11-22T15:02:17;4.40;77.40
74101;DHT22;62462;52.530;21.682;2022-11-22T15:17:52;4.40;77.40
74101;DHT22;62462;52.530;21.682;2022-11-22T15:20:36;4.40;77.40
74101;DHT22;62462;52.530;21.682;2022-11-22T15:23:29;4.40;77.60
74101;DHT22;62462;52.530;21.682;2022-11-22T15:26:03;4.40;77.60
74101;DHT22;62462;52.530;21.682;2022-11-22T15:28:30;4.40;77.60
74101;DHT22;62462;52.530;21.682;2022-11-22T15:30:59;4.40;77.60
74101;DHT22;62462;52.530;21.682;2022-11-22T15:33:33;4.40;77.70
74101;DHT22;62462;52.530;21.682;2022-11-22T15:36:02;4.40;77.90
74101;DHT22;62462;52.530;21.682;2022-11-22T15:38:31;4.40;78.10
74101;DHT22;62462;52.530;21.682;2022-11-22T15:41:03;4.40;78.20
74101;DHT22;62462;52.530;21.682;2022-11-22T15:43:29;4.30;78.20
74101;DHT22;62462;52.530;21.682;2022-11-22T15:45:55;4.30;78.40
74101;DHT22;62462;52.530;21.682;2022-11-22T15:48:30;4.30;78.40
74101;DHT22;62462;52.530;21.682;2022-11-22T15:53:34;4.30;78.30
74101;DHT22;62462;52.530;21.682;2022-11-22T15:56:26;4.30;78.50
74101;DHT22;62462;52.530;21.682;2022-11-22T15:58:55;4.30;78.60
74101;DHT22;62462;52.530;21.682;2022-11-22T16:01:21;4.30;78.60
74101;DHT22;62462;52.530;21.682;2022-11-22T16:03:55;4.30;78.60
74101;DHT22;62462;52.530;21.682;2022-11-22T16:06:27;4.30;78.70
74101;DHT22;62462;52.530;21.682;2022-11-22T16:09:00;4.30;78.60
74101;DHT22;62462;52.530;21.682;2022-11-22T16:11:35;4.20;78.80
74101;DHT22;62462;52.530;21.682;2022-11-22T16:14:02;4.10;79.10
74101;DHT22;62462;52.530;21.682;2022-11-22T16:16:32;4.10;79.10
74101;DHT22;62462;52.530;21.682;2022-11-22T16:21:53;4.20;79.10
74101;DHT22;62462;52.530;21.682;2022-11-22T16:24:19;4.10;79.20
74101;DHT22;62462;52.530;21.682;2022-11-22T16:26:59;4.10;79.20
74101;DHT22;62462;52.530;21.682;2022-11-22T16:29:27;4.00;79.30
74101;DHT22;62462;52.530;21.682;2022-11-22T16:32:12;4.00;79.60
74101;DHT22;62462;52.530;21.682;2022-11-22T16:34:39;4.00;79.80
74101;DHT22;62462;52.530;21.682;2022-11-22T16:37:25;4.00;79.80
74101;DHT22;62462;52.530;21.682;2022-11-22T16:39:50;4.00;79.70
74101;DHT22;62462;52.530;21.682;2022-11-22T16:42:16;4.00;79.80
74101;DHT22;62462;52.530;21.682;2022-11-22T16:44:42;4.00;79.80
74101;DHT22;62462;52.530;21.682;2022-11-22T16:47:14;3.90;79.80
74101;DHT22;62462;52.530;21.682;2022-11-22T16:49:40;3.90;80.00
74101;DHT22;62462;52.530;21.682;2022-11-22T16:52:10;3.90;80.10
74101;DHT22;62462;52.530;21.682;2022-11-22T16:54:36;3.90;80.10
74101;DHT22;62462;52.530;21.682;2022-11-22T16:57:07;3.90;80.10
74101;DHT22;62462;52.530;21.682;2022-11-22T16:59:33;3.90;80.10
74101;DHT22;62462;52.530;21.682;2022-11-22T17:01:59;3.90;80.00
74101;DHT22;62462;52.530;21.682;2022-11-22T17:04:25;3.80;80.20
74101;DHT22;62462;52.530;21.682;2022-11-22T17:06:52;3.80;80.10
74101;DHT22;62462;52.530;21.682;2022-11-22T17:09:18;3.90;80.10
74101;DHT22;62462;52.530;21.682;2022-11-22T17:11:44;3.90;80.10
74101;DHT22;62462;52.530;21.682;2022-11-22T17:14:14;3.90;79.90
74101;DHT22;62462;52.530;21.682;2022-11-22T17:16:40;3.90;79.80
74101;DHT22;62462;52.530;21.682;2022-11-22T17:19:07;3.80;79.90
74101;DHT22;62462;52.530;21.682;2022-11-22T17:21:33;3.90;79.90
74101;DHT22;62462;52.530;21.682;2022-11-22T17:24:01;3.90;79.90
74101;DHT22;62462;52.530;21.682;2022-11-22T17:26:27;3.90;79.90
74101;DHT22;62462;52.530;21.682;2022-11-22T17:28:53;3.90;79.70
74101;DHT22;62462;52.530;21.682;2022-11-22T17:31:20;3.90;79.70
74101;DHT22;62462;52.530;21.682;2022-11-22T17:33:55;3.90;79.60
74101;DHT22;62462;52.530;21.682;2022-11-22T17:36:33;3.90;79.60
74101;DHT22;62462;52.530;21.682;2022-11-22T17:39:00;3.90;79.50
74101;DHT22;62462;52.530;21.682;2022-11-22T17:41:27;4.00;79.40
74101;DHT22;62462;52.530;21.682;2022-11-22T17:43:55;4.00;79.20
74101;DHT22;62462;52.530;21.682;2022-11-22T17:46:21;4.00;79.20
74101;DHT22;62462;52.530;21.682;2022-11-22T17:48:54;4.10;79.10
74101;DHT22;62462;52.530;21.682;2022-11-22T17:51:21;4.10;79.10
74101;DHT22;62462;52.530;21.682;2022-11-22T17:53:47;4.10;79.10
74101;DHT22;62462;52.530;21.682;2022-11-22T17:56:13;4.00;79.00
74101;DHT22;62462;52.530;21.682;2022-11-22T17:58:40;4.00;78.90
74101;DHT22;62462;52.530;21.682;2022-11-22T18:01:11;3.90;79.10
74101;DHT22;62462;52.530;21.682;2022-11-22T18:03:38;3.90;79.30